sensor_id;sensor_type;location;lat;lon;timestamp;P1;durP1;ratioP1;P2;durP2;ratioP2
15258;SDS011;34462;51.368;12.364;2023-04-06T00:00:05;7.87;;;6.07;;
15258;SDS011;34462;51.368;12.364;2023-04-06T00:02:35;8.90;;;6.40;;
15258;SDS011;34462;51.368;12.364;2023-04-06T00:05:04;9.77;;;6.20;;
15258;SDS011;34462;51.368;12.364;2023-04-06T00:07:33;9.77;;;6.43;;
15258;SDS011;34462;51.368;12.364;2023-04-06T00:10:02;6.30;;;5.70;;
15258;SDS011;34462;51.368;12.364;2023-04-06T00:12:31;7.83;;;6.20;;
15258;SDS011;34462;51.368;12.364;2023-04-06T00:14:59;7.40;;;6.53;;
15258;SDS011;34462;51.368;12.364;2023-04-06T00:17:30;9.17;;;6.60;;
15258;SDS011;34462;51.368;12.364;2023-04-06T00:19:58;7.00;;;6.03;;
15258;SDS011;34462;51.368;12.364;2023-04-06T00:22:27;7.93;;;6.50;;
15258;SDS011;34462;51.368;12.364;2023-04-06T00:24:55;7.90;;;5.80;;
15258;SDS011;34462;51.368;12.364;2023-04-06T00:27:24;8.37;;;6.50;;
15258;SDS011;34462;51.368;12.364;2023-04-06T00:29:52;7.40;;;6.10;;
15258;SDS011;34462;51.368;12.364;2023-04-06T00:32:20;6.97;;;6.00;;
15258;SDS011;34462;51.368;12.364;2023-04-06T00:34:50;6.83;;;6.00;;
15258;SDS011;34462;51.368;12.364;2023-04-06T00:37:18;8.27;;;6.23;;
15258;SDS011;34462;51.368;12.364;2023-04-06T00:39:46;6.53;;;5.53;;
15258;SDS011;34462;51.368;12.364;2023-04-06T00:42:15;8.13;;;6.40;;
15258;SDS011;34462;51.368;12.364;2023-04-06T00:44:44;6.97;;;6.13;;
15258;SDS011;34462;51.368;12.364;2023-04-06T00:47:12;7.60;;;6.47;;
15258;SDS011;34462;51.368;12.364;2023-04-06T00:49:40;8.23;;;6.43;;
15258;SDS011;34462;51.368;12.364;2023-04-06T00:52:10;8.20;;;6.20;;
15258;SDS011;34462;51.368;12.364;2023-04-06T00:54:38;8.27;;;6.77;;
15258;SDS011;34462;51.368;12.364;2023-04-06T00:57:07;8.03;;;6.10;;
15258;SDS011;34462;51.368;12.364;2023-04-06T00:59:35;7.97;;;6.63;;
15258;SDS011;34462;51.368;12.364;2023-04-06T01:02:04;7.77;;;6.30;;
15258;SDS011;34462;51.368;12.364;2023-04-06T01:04:32;7.73;;;6.80;;
15258;SDS011;34462;51.368;12.364;2023-04-06T01:07:01;8.67;;;6.77;;
15258;SDS011;34462;51.368;12.364;2023-04-06T01:09:31;7.60;;;6.80;;
15258;SDS011;34462;51.368;12.364;2023-04-06T01:12:00;8.00;;;7.00;;
15258;SDS011;34462;51.368;12.364;2023-04-06T01:14:29;7.33;;;6.37;;
15258;SDS011;34462;51.368;12.364;2023-04-06T01:16:57;7.73;;;6.70;;
15258;SDS011;34462;51.368;12.364;2023-04-06T01:19:27;8.33;;;6.67;;
15258;SDS011;34462;51.368;12.364;2023-04-06T01:21:56;6.73;;;6.03;;
15258;SDS011;34462;51.368;12.364;2023-04-06T01:24:25;8.83;;;6.63;;
15258;SDS011;34462;51.368;12.364;2023-04-06T01:26:53;7.07;;;6.03;;
15258;SDS011;34462;51.368;12.364;2023-04-06T01:29:22;8.27;;;6.03;;
15258;SDS011;34462;51.368;12.364;2023-04-06T01:31:51;13.47;;;6.47;;
15258;SDS011;34462;51.368;12.364;2023-04-06T01:34:19;7.80;;;6.70;;
15258;SDS011;34462;51.368;12.364;2023-04-06T01:36:47;7.87;;;6.73;;
15258;SDS011;34462;51.368;12.364;2023-04-06T01:39:16;7.70;;;6.40;;
15258;SDS011;34462;51.368;12.364;2023-04-06T01:41:46;8.33;;;6.30;;
15258;SDS011;34462;51.368;12.364;2023-04-06T01:44:16;7.30;;;5.90;;
15258;SDS011;34462;51.368;12.364;2023-04-06T01:46:45;6.67;;;5.87;;
15258;SDS011;34462;51.368;12.364;2023-04-06T01:49:13;9.37;;;6.40;;
15258;SDS011;34462;51.368;12.364;2023-04-06T01:51:41;7.57;;;6.23;;
15258;SDS011;34462;51.368;12.364;2023-04-06T01:54:10;6.87;;;6.03;;
15258;SDS011;34462;51.368;12.364;2023-04-06T01:56:38;7.23;;;6.40;;
15258;SDS011;34462;51.368;12.364;2023-04-06T01:59:08;10.40;;;6.37;;
15258;SDS011;34462;51.368;12.364;2023-04-06T02:01:37;6.67;;;5.77;;
15258;SDS011;34462;51.368;12.364;2023-04-06T02:04:05;6.77;;;6.07;;
15258;SDS011;34462;51.368;12.364;2023-04-06T02:06:33;6.30;;;5.47;;
15258;SDS011;34462;51.368;12.364;2023-04-06T02:09:01;7.00;;;5.67;;
15258;SDS011;34462;51.368;12.364;2023-04-06T02:11:30;6.67;;;5.50;;
15258;SDS011;34462;51.368;12.364;2023-04-06T02:13:58;7.20;;;6.30;;
15258;SDS011;34462;51.368;12.364;2023-04-06T02:16:28;6.13;;;5.53;;
15258;SDS011;34462;51.368;12.364;2023-04-06T02:18:57;7.63;;;5.90;;
15258;SDS011;34462;51.368;12.364;2023-04-06T02:21:25;6.17;;;5.57;;
15258;SDS011;34462;51.368;12.364;2023-04-06T02:23:53;6.17;;;5.57;;
15258;SDS011;34462;51.368;12.364;2023-04-06T02:26:21;6.87;;;5.87;;
15258;SDS011;34462;51.368;12.364;2023-04-06T02:28:50;7.47;;;6.50;;
15258;SDS011;34462;51.368;12.364;2023-04-06T02:31:18;6.50;;;5.77;;
15258;SDS011;34462;51.368;12.364;2023-04-06T02:33:48;6.93;;;6.23;;
15258;SDS011;34462;51.368;12.364;2023-04-06T02:36:16;6.97;;;5.97;;
15258;SDS011;34462;51.368;12.364;2023-04-06T02:38:44;8.17;;;5.73;;
15258;SDS011;34462;51.368;12.364;2023-04-06T02:41:13;8.33;;;5.97;;
15258;SDS011;34462;51.368;12.364;2023-04-06T02:43:41;8.03;;;6.60;;
15258;SDS011;34462;51.368;12.364;2023-04-06T02:46:09;8.47;;;5.83;;
15258;SDS011;34462;51.368;12.364;2023-04-06T02:48:37;8.70;;;6.30;;
15258;SDS011;34462;51.368;12.364;2023-04-06T02:51:07;6.93;;;6.23;;
15258;SDS011;34462;51.368;12.364;2023-04-06T02:53:35;6.30;;;5.70;;
15258;SDS011;34462;51.368;12.364;2023-04-06T02:56:04;8.00;;;6.67;;
15258;SDS011;34462;51.368;12.364;2023-04-06T02:58:33;7.73;;;6.43;;
15258;SDS011;34462;51.368;12.364;2023-04-06T03:01:01;8.70;;;6.50;;
15258;SDS011;34462;51.368;12.364;2023-04-06T03:03:30;9.03;;;6.50;;
15258;SDS011;34462;51.368;12.364;2023-04-06T03:05:58;8.03;;;6.80;;
15258;SDS011;34462;51.368;12.364;2023-04-06T03:08:28;8.00;;;6.97;;
15258;SDS011;34462;51.368;12.364;2023-04-06T03:10:56;7.53;;;6.60;;
15258;SDS011;34462;51.368;12.364;2023-04-06T03:13:25;8.00;;;6.73;;
15258;SDS011;34462;51.368;12.364;2023-04-06T03:15:53;7.83;;;6.73;;
15258;SDS011;34462;51.368;12.364;2023-04-06T03:18:22;7.87;;;6.60;;
15258;SDS011;34462;51.368;12.364;2023-04-06T03:20:51;7.17;;;6.47;;
15258;SDS011;34462;51.368;12.364;2023-04-06T03:23:21;7.87;;;6.83;;
15258;SDS011;34462;51.368;12.364;2023-04-06T03:25:50;9.27;;;6.70;;
15258;SDS011;34462;51.368;12.364;2023-04-06T03:28:19;7.20;;;6.50;;
15258;SDS011;34462;51.368;12.364;2023-04-06T03:30:47;7.97;;;7.00;;
15258;SDS011;34462;51.368;12.364;2023-04-06T03:33:16;8.93;;;7.00;;
15258;SDS011;34462;51.368;12.364;2023-04-06T03:35:45;9.20;;;7.33;;
15258;SDS011;34462;51.368;12.364;2023-04-06T03:38:13;8.93;;;6.73;;
15258;SDS011;34462;51.368;12.364;2023-04-06T03:40:41;9.03;;;6.70;;
15258;SDS011;34462;51.368;12.364;2023-04-06T03:43:11;9.10;;;7.73;;
15258;SDS011;34462;51.368;12.364;2023-04-06T03:45:39;9.30;;;6.93;;
15258;SDS011;34462;51.368;12.364;2023-04-06T03:48:07;7.77;;;6.97;;
15258;SDS011;34462;51.368;12.364;2023-04-06T03:50:36;7.93;;;6.73;;
15258;SDS011;34462;51.368;12.364;2023-04-06T03:53:04;7.77;;;7.00;;
15258;SDS011;34462;51.368;12.364;2023-04-06T03:55:32;8.90;;;7.10;;
15258;SDS011;34462;51.368;12.364;2023-04-06T03:58:01;10.87;;;7.23;;
15258;SDS011;34462;51.368;12.364;2023-04-06T04:00:30;8.50;;;7.20;;
15258;SDS011;34462;51.368;12.364;2023-04-06T04:02:59;8.97;;;7.00;;
15258;SDS011;34462;51.368;12.364;2023-04-06T04:05:28;8.47;;;7.33;;
15258;SDS011;34462;51.368;12.364;2023-04-06T04:07:56;7.63;;;6.93;;
15258;SDS011;34462;51.368;12.364;2023-04-06T04:10:25;8.20;;;7.40;;
15258;SDS011;34462;51.368;12.364;2023-04-06T04:12:53;9.43;;;7.67;;
15258;SDS011;34462;51.368;12.364;2023-04-06T04:15:21;9.97;;;7.57;;
15258;SDS011;34462;51.368;12.364;2023-04-06T04:17:51;8.80;;;7.13;;
15258;SDS011;34462;51.368;12.364;2023-04-06T04:20:19;9.30;;;7.67;;
15258;SDS011;34462;51.368;12.364;2023-04-06T04:22:48;8.47;;;7.57;;
15258;SDS011;34462;51.368;12.364;2023-04-06T04:25:16;8.87;;;7.53;;
15258;SDS011;34462;51.368;12.364;2023-04-06T04:27:44;8.40;;;7.60;;
15258;SDS011;34462;51.368;12.364;2023-04-06T04:30:12;8.93;;;7.77;;
15258;SDS011;34462;51.368;12.364;2023-04-06T04:32:41;10.50;;;7.23;;
15258;SDS011;34462;51.368;12.364;2023-04-06T04:35:11;8.57;;;7.67;;
15258;SDS011;34462;51.368;12.364;2023-04-06T04:37:40;9.33;;;7.43;;
15258;SDS011;34462;51.368;12.364;2023-04-06T04:40:09;9.27;;;7.43;;
15258;SDS011;34462;51.368;12.364;2023-04-06T04:42:39;8.40;;;7.50;;
15258;SDS011;34462;51.368;12.364;2023-04-06T04:45:07;12.17;;;9.77;;
15258;SDS011;34462;51.368;12.364;2023-04-06T04:47:36;10.23;;;8.17;;
15258;SDS011;34462;51.368;12.364;2023-04-06T04:50:05;9.20;;;7.77;;
15258;SDS011;34462;51.368;12.364;2023-04-06T04:52:36;11.27;;;8.60;;
15258;SDS011;34462;51.368;12.364;2023-04-06T04:55:05;10.87;;;8.93;;
15258;SDS011;34462;51.368;12.364;2023-04-06T04:57:34;9.37;;;8.13;;
15258;SDS011;34462;51.368;12.364;2023-04-06T05:00:03;10.20;;;8.30;;
15258;SDS011;34462;51.368;12.364;2023-04-06T05:02:32;9.30;;;8.10;;
15258;SDS011;34462;51.368;12.364;2023-04-06T05:05:00;10.53;;;8.07;;
15258;SDS011;34462;51.368;12.364;2023-04-06T05:07:29;8.70;;;7.60;;
15258;SDS011;34462;51.368;12.364;2023-04-06T05:09:58;10.27;;;8.13;;
15258;SDS011;34462;51.368;12.364;2023-04-06T05:12:27;9.70;;;8.17;;
15258;SDS011;34462;51.368;12.364;2023-04-06T05:14:55;10.80;;;8.50;;
15258;SDS011;34462;51.368;12.364;2023-04-06T05:17:24;10.03;;;8.20;;
15258;SDS011;34462;51.368;12.364;2023-04-06T05:19:52;9.63;;;8.63;;
15258;SDS011;34462;51.368;12.364;2023-04-06T05:22:21;10.00;;;8.30;;
15258;SDS011;34462;51.368;12.364;2023-04-06T05:24:49;9.57;;;8.23;;
15258;SDS011;34462;51.368;12.364;2023-04-06T05:27:19;10.43;;;8.57;;
15258;SDS011;34462;51.368;12.364;2023-04-06T05:29:47;11.00;;;8.47;;
15258;SDS011;34462;51.368;12.364;2023-04-06T05:32:16;13.63;;;9.30;;
15258;SDS011;34462;51.368;12.364;2023-04-06T05:34:48;10.30;;;8.70;;
15258;SDS011;34462;51.368;12.364;2023-04-06T05:37:16;11.83;;;8.47;;
15258;SDS011;34462;51.368;12.364;2023-04-06T05:39:45;13.50;;;10.40;;
15258;SDS011;34462;51.368;12.364;2023-04-06T05:42:13;12.30;;;8.97;;
15258;SDS011;34462;51.368;12.364;2023-04-06T05:44:42;10.90;;;7.97;;
15258;SDS011;34462;51.368;12.364;2023-04-06T05:47:11;9.20;;;7.53;;
15258;SDS011;34462;51.368;12.364;2023-04-06T05:49:39;9.80;;;8.17;;
15258;SDS011;34462;51.368;12.364;2023-04-06T05:52:09;9.87;;;7.87;;
15258;SDS011;34462;51.368;12.364;2023-04-06T05:54:38;10.40;;;8.43;;
15258;SDS011;34462;51.368;12.364;2023-04-06T05:57:06;9.20;;;8.23;;
15258;SDS011;34462;51.368;12.364;2023-04-06T05:59:34;12.10;;;8.00;;
15258;SDS011;34462;51.368;12.364;2023-04-06T06:02:04;9.73;;;7.30;;
15258;SDS011;34462;51.368;12.364;2023-04-06T06:04:33;9.80;;;7.73;;
15258;SDS011;34462;51.368;12.364;2023-04-06T06:07:02;11.30;;;8.50;;
15258;SDS011;34462;51.368;12.364;2023-04-06T06:09:30;7.97;;;7.17;;
15258;SDS011;34462;51.368;12.364;2023-04-06T06:11:59;8.30;;;7.33;;
15258;SDS011;34462;51.368;12.364;2023-04-06T06:14:27;9.93;;;7.30;;
15258;SDS011;34462;51.368;12.364;2023-04-06T06:16:56;9.93;;;7.27;;
15258;SDS011;34462;51.368;12.364;2023-04-06T06:19:26;8.93;;;7.03;;
15258;SDS011;34462;51.368;12.364;2023-04-06T06:21:54;8.97;;;6.77;;
15258;SDS011;34462;51.368;12.364;2023-04-06T06:24:22;8.17;;;7.13;;
15258;SDS011;34462;51.368;12.364;2023-04-06T06:26:51;7.40;;;5.93;;
15258;SDS011;34462;51.368;12.364;2023-04-06T06:29:19;8.97;;;6.73;;
15258;SDS011;34462;51.368;12.364;2023-04-06T06:31:48;9.43;;;6.57;;
15258;SDS011;34462;51.368;12.364;2023-04-06T06:34:16;7.87;;;6.53;;
15258;SDS011;34462;51.368;12.364;2023-04-06T06:36:45;7.20;;;6.30;;
15258;SDS011;34462;51.368;12.364;2023-04-06T06:39:17;10.27;;;6.87;;
15258;SDS011;34462;51.368;12.364;2023-04-06T06:41:45;8.07;;;7.10;;
15258;SDS011;34462;51.368;12.364;2023-04-06T06:44:14;8.43;;;6.80;;
15258;SDS011;34462;51.368;12.364;2023-04-06T06:46:43;10.43;;;7.20;;
15258;SDS011;34462;51.368;12.364;2023-04-06T06:49:11;7.53;;;6.83;;
15258;SDS011;34462;51.368;12.364;2023-04-06T06:51:40;8.70;;;6.97;;
15258;SDS011;34462;51.368;12.364;2023-04-06T06:54:10;7.00;;;5.93;;
15258;SDS011;34462;51.368;12.364;2023-04-06T06:56:38;8.43;;;6.30;;
15258;SDS011;34462;51.368;12.364;2023-04-06T06:59:06;8.17;;;6.37;;
15258;SDS011;34462;51.368;12.364;2023-04-06T07:01:35;10.00;;;6.70;;
15258;SDS011;34462;51.368;12.364;2023-04-06T07:04:04;7.07;;;6.43;;
15258;SDS011;34462;51.368;12.364;2023-04-06T07:06:34;6.93;;;6.23;;
15258;SDS011;34462;51.368;12.364;2023-04-06T07:09:03;6.67;;;6.07;;
15258;SDS011;34462;51.368;12.364;2023-04-06T07:11:32;6.87;;;6.10;;
15258;SDS011;34462;51.368;12.364;2023-04-06T07:14:01;8.70;;;6.63;;
15258;SDS011;34462;51.368;12.364;2023-04-06T07:16:29;9.53;;;6.27;;
15258;SDS011;34462;51.368;12.364;2023-04-06T07:18:57;10.33;;;6.67;;
15258;SDS011;34462;51.368;12.364;2023-04-06T07:21:26;6.83;;;6.20;;
15258;SDS011;34462;51.368;12.364;2023-04-06T07:23:54;8.20;;;6.07;;
15258;SDS011;34462;51.368;12.364;2023-04-06T07:26:23;7.07;;;5.80;;
15258;SDS011;34462;51.368;12.364;2023-04-06T07:28:53;6.40;;;5.80;;
15258;SDS011;34462;51.368;12.364;2023-04-06T07:31:21;6.70;;;6.10;;
15258;SDS011;34462;51.368;12.364;2023-04-06T07:33:50;6.50;;;5.83;;
15258;SDS011;34462;51.368;12.364;2023-04-06T07:36:19;6.43;;;5.63;;
15258;SDS011;34462;51.368;12.364;2023-04-06T07:38:48;7.70;;;6.10;;
15258;SDS011;34462;51.368;12.364;2023-04-06T07:41:16;7.47;;;6.20;;
15258;SDS011;34462;51.368;12.364;2023-04-06T07:43:44;8.97;;;5.63;;
15258;SDS011;34462;51.368;12.364;2023-04-06T07:46:14;8.30;;;6.50;;
15258;SDS011;34462;51.368;12.364;2023-04-06T07:48:42;6.20;;;5.50;;
15258;SDS011;34462;51.368;12.364;2023-04-06T07:51:11;6.03;;;5.50;;
15258;SDS011;34462;51.368;12.364;2023-04-06T07:53:40;7.00;;;5.90;;
15258;SDS011;34462;51.368;12.364;2023-04-06T07:56:08;6.50;;;5.47;;
15258;SDS011;34462;51.368;12.364;2023-04-06T07:58:37;6.00;;;5.40;;
15258;SDS011;34462;51.368;12.364;2023-04-06T08:01:05;5.90;;;5.33;;
15258;SDS011;34462;51.368;12.364;2023-04-06T08:03:35;6.53;;;5.77;;
15258;SDS011;34462;51.368;12.364;2023-04-06T08:06:04;6.07;;;5.47;;
15258;SDS011;34462;51.368;12.364;2023-04-06T08:08:32;7.73;;;6.20;;
15258;SDS011;34462;51.368;12.364;2023-04-06T08:11:01;6.80;;;5.67;;
15258;SDS011;34462;51.368;12.364;2023-04-06T08:13:29;7.57;;;5.77;;
15258;SDS011;34462;51.368;12.364;2023-04-06T08:15:58;7.23;;;6.03;;
15258;SDS011;34462;51.368;12.364;2023-04-06T08:18:27;9.70;;;6.77;;
15258;SDS011;34462;51.368;12.364;2023-04-06T08:20:57;6.60;;;5.80;;
15258;SDS011;34462;51.368;12.364;2023-04-06T08:23:25;7.93;;;6.50;;
15258;SDS011;34462;51.368;12.364;2023-04-06T08:25:54;6.87;;;6.00;;
15258;SDS011;34462;51.368;12.364;2023-04-06T08:28:22;6.83;;;5.80;;
15258;SDS011;34462;51.368;12.364;2023-04-06T08:30:50;6.57;;;5.60;;
15258;SDS011;34462;51.368;12.364;2023-04-06T08:33:19;7.70;;;5.90;;
15258;SDS011;34462;51.368;12.364;2023-04-06T08:35:47;8.40;;;6.10;;
15258;SDS011;34462;51.368;12.364;2023-04-06T08:38:17;7.10;;;5.97;;
15258;SDS011;34462;51.368;12.364;2023-04-06T08:40:45;7.13;;;5.97;;
15258;SDS011;34462;51.368;12.364;2023-04-06T08:43:15;6.17;;;5.57;;
15258;SDS011;34462;51.368;12.364;2023-04-06T08:45:49;7.70;;;6.20;;
15258;SDS011;34462;51.368;12.364;2023-04-06T08:48:17;6.83;;;6.13;;
15258;SDS011;34462;51.368;12.364;2023-04-06T08:50:46;6.70;;;6.00;;
15258;SDS011;34462;51.368;12.364;2023-04-06T08:53:14;7.70;;;6.00;;
15258;SDS011;34462;51.368;12.364;2023-04-06T08:55:49;6.90;;;6.20;;
15258;SDS011;34462;51.368;12.364;2023-04-06T08:58:18;7.07;;;5.90;;
15258;SDS011;34462;51.368;12.364;2023-04-06T09:01:05;7.57;;;5.80;;
15258;SDS011;34462;51.368;12.364;2023-04-06T09:03:38;7.43;;;5.87;;
15258;SDS011;34462;51.368;12.364;2023-04-06T09:06:08;8.20;;;6.57;;
15258;SDS011;34462;51.368;12.364;2023-04-06T09:08:40;6.80;;;6.10;;
15258;SDS011;34462;51.368;12.364;2023-04-06T09:11:09;6.10;;;5.50;;
15258;SDS011;34462;51.368;12.364;2023-04-06T09:13:44;7.43;;;6.00;;
15258;SDS011;34462;51.368;12.364;2023-04-06T09:16:14;6.80;;;5.80;;
15258;SDS011;34462;51.368;12.364;2023-04-06T09:18:43;7.00;;;5.30;;
15258;SDS011;34462;51.368;12.364;2023-04-06T09:21:12;8.47;;;6.03;;
15258;SDS011;34462;51.368;12.364;2023-04-06T09:23:46;7.00;;;6.00;;
15258;SDS011;34462;51.368;12.364;2023-04-06T09:26:15;9.00;;;6.03;;
15258;SDS011;34462;51.368;12.364;2023-04-06T09:28:45;7.23;;;5.90;;
15258;SDS011;34462;51.368;12.364;2023-04-06T09:31:15;8.03;;;5.80;;
15258;SDS011;34462;51.368;12.364;2023-04-06T09:33:48;6.60;;;4.70;;
15258;SDS011;34462;51.368;12.364;2023-04-06T09:36:18;7.03;;;5.30;;
15258;SDS011;34462;51.368;12.364;2023-04-06T09:38:55;6.13;;;5.00;;
15258;SDS011;34462;51.368;12.364;2023-04-06T09:41:25;9.37;;;5.70;;
15258;SDS011;34462;51.368;12.364;2023-04-06T09:44:02;7.27;;;5.50;;
15258;SDS011;34462;51.368;12.364;2023-04-06T09:46:33;7.50;;;5.67;;
15258;SDS011;34462;51.368;12.364;2023-04-06T09:49:23;6.43;;;5.27;;
15258;SDS011;34462;51.368;12.364;2023-04-06T09:51:57;6.83;;;5.40;;
15258;SDS011;34462;51.368;12.364;2023-04-06T09:54:30;5.83;;;4.57;;
15258;SDS011;34462;51.368;12.364;2023-04-06T09:57:01;5.80;;;5.20;;
15258;SDS011;34462;51.368;12.364;2023-04-06T09:59:42;7.43;;;5.23;;
15258;SDS011;34462;51.368;12.364;2023-04-06T10:02:20;6.67;;;4.90;;
15258;SDS011;34462;51.368;12.364;2023-04-06T10:05:01;6.00;;;5.07;;
15258;SDS011;34462;51.368;12.364;2023-04-06T10:07:37;7.17;;;5.00;;
15258;SDS011;34462;51.368;12.364;2023-04-06T10:10:27;6.23;;;4.97;;
15258;SDS011;34462;51.368;12.364;2023-04-06T10:12:56;6.80;;;5.10;;
15258;SDS011;34462;51.368;12.364;2023-04-06T10:15:26;5.60;;;5.10;;
15258;SDS011;34462;51.368;12.364;2023-04-06T10:17:56;4.87;;;4.33;;
15258;SDS011;34462;51.368;12.364;2023-04-06T10:20:27;5.30;;;4.90;;
15258;SDS011;34462;51.368;12.364;2023-04-06T10:23:04;5.67;;;4.83;;
15258;SDS011;34462;51.368;12.364;2023-04-06T10:25:52;8.13;;;6.00;;
15258;SDS011;34462;51.368;12.364;2023-04-06T10:28:22;6.90;;;5.40;;
15258;SDS011;34462;51.368;12.364;2023-04-06T10:30:56;6.57;;;5.73;;
15258;SDS011;34462;51.368;12.364;2023-04-06T10:33:25;6.30;;;5.70;;
15258;SDS011;34462;51.368;12.364;2023-04-06T10:35:55;5.30;;;4.90;;
15258;SDS011;34462;51.368;12.364;2023-04-06T10:38:32;7.20;;;5.30;;
15258;SDS011;34462;51.368;12.364;2023-04-06T10:41:08;6.97;;;5.30;;
15258;SDS011;34462;51.368;12.364;2023-04-06T10:43:38;5.60;;;5.10;;
15258;SDS011;34462;51.368;12.364;2023-04-06T10:46:08;5.43;;;4.83;;
15258;SDS011;34462;51.368;12.364;2023-04-06T10:48:38;5.47;;;4.97;;
15258;SDS011;34462;51.368;12.364;2023-04-06T10:51:08;5.53;;;5.03;;
15258;SDS011;34462;51.368;12.364;2023-04-06T10:53:39;9.23;;;6.33;;
15258;SDS011;34462;51.368;12.364;2023-04-06T10:56:12;6.53;;;5.67;;
15258;SDS011;34462;51.368;12.364;2023-04-06T10:58:45;7.07;;;5.33;;
15258;SDS011;34462;51.368;12.364;2023-04-06T11:01:15;6.77;;;6.07;;
15258;SDS011;34462;51.368;12.364;2023-04-06T11:03:45;7.27;;;5.83;;
15258;SDS011;34462;51.368;12.364;2023-04-06T11:06:20;6.23;;;5.63;;
15258;SDS011;34462;51.368;12.364;2023-04-06T11:08:50;6.60;;;5.90;;
15258;SDS011;34462;51.368;12.364;2023-04-06T11:11:21;5.93;;;5.37;;
15258;SDS011;34462;51.368;12.364;2023-04-06T11:13:53;5.63;;;5.13;;
15258;SDS011;34462;51.368;12.364;2023-04-06T11:16:24;6.43;;;5.60;;
15258;SDS011;34462;51.368;12.364;2023-04-06T11:18:55;6.73;;;5.43;;
15258;SDS011;34462;51.368;12.364;2023-04-06T11:21:32;6.17;;;5.43;;
15258;SDS011;34462;51.368;12.364;2023-04-06T11:24:09;5.97;;;5.47;;
15258;SDS011;34462;51.368;12.364;2023-04-06T11:26:41;6.73;;;5.40;;
15258;SDS011;34462;51.368;12.364;2023-04-06T11:29:12;6.20;;;5.60;;
15258;SDS011;34462;51.368;12.364;2023-04-06T11:31:42;5.57;;;5.07;;
15258;SDS011;34462;51.368;12.364;2023-04-06T11:34:15;7.33;;;5.40;;
15258;SDS011;34462;51.368;12.364;2023-04-06T11:36:46;7.13;;;6.00;;
15258;SDS011;34462;51.368;12.364;2023-04-06T11:39:20;5.83;;;5.23;;
15258;SDS011;34462;51.368;12.364;2023-04-06T11:41:53;6.33;;;5.57;;
15258;SDS011;34462;51.368;12.364;2023-04-06T11:44:28;6.77;;;5.40;;
15258;SDS011;34462;51.368;12.364;2023-04-06T11:47:01;6.70;;;5.70;;
15258;SDS011;34462;51.368;12.364;2023-04-06T11:49:30;8.80;;;5.33;;
15258;SDS011;34462;51.368;12.364;2023-04-06T11:52:00;6.20;;;5.60;;
15258;SDS011;34462;51.368;12.364;2023-04-06T11:54:30;5.80;;;5.30;;
15258;SDS011;34462;51.368;12.364;2023-04-06T11:57:01;5.93;;;5.33;;
15258;SDS011;34462;51.368;12.364;2023-04-06T11:59:31;6.27;;;5.67;;
15258;SDS011;34462;51.368;12.364;2023-04-06T12:02:00;6.63;;;5.67;;
15258;SDS011;34462;51.368;12.364;2023-04-06T12:04:29;6.10;;;5.33;;
15258;SDS011;34462;51.368;12.364;2023-04-06T12:06:59;5.80;;;5.30;;
15258;SDS011;34462;51.368;12.364;2023-04-06T12:09:27;5.73;;;5.20;;
15258;SDS011;34462;51.368;12.364;2023-04-06T12:11:55;5.63;;;5.10;;
15258;SDS011;34462;51.368;12.364;2023-04-06T12:14:25;6.00;;;4.90;;
15258;SDS011;34462;51.368;12.364;2023-04-06T12:16:54;5.50;;;5.00;;
15258;SDS011;34462;51.368;12.364;2023-04-06T12:19:22;6.30;;;4.97;;
15258;SDS011;34462;51.368;12.364;2023-04-06T12:21:52;5.60;;;5.10;;
15258;SDS011;34462;51.368;12.364;2023-04-06T12:24:21;5.37;;;4.87;;
15258;SDS011;34462;51.368;12.364;2023-04-06T12:26:49;5.53;;;5.03;;
15258;SDS011;34462;51.368;12.364;2023-04-06T12:29:33;5.83;;;4.77;;
15258;SDS011;34462;51.368;12.364;2023-04-06T12:32:01;5.73;;;5.23;;
15258;SDS011;34462;51.368;12.364;2023-04-06T12:34:30;5.57;;;5.07;;
15258;SDS011;34462;51.368;12.364;2023-04-06T12:36:58;6.10;;;5.50;;
15258;SDS011;34462;51.368;12.364;2023-04-06T12:39:27;6.00;;;5.50;;
15258;SDS011;34462;51.368;12.364;2023-04-06T12:41:56;5.53;;;5.03;;
15258;SDS011;34462;51.368;12.364;2023-04-06T12:44:24;7.47;;;5.23;;
15258;SDS011;34462;51.368;12.364;2023-04-06T12:46:54;7.03;;;6.23;;
15258;SDS011;34462;51.368;12.364;2023-04-06T12:49:22;5.67;;;5.10;;
15258;SDS011;34462;51.368;12.364;2023-04-06T12:51:51;5.57;;;5.07;;
15258;SDS011;34462;51.368;12.364;2023-04-06T12:54:20;7.80;;;5.60;;
15258;SDS011;34462;51.368;12.364;2023-04-06T12:56:48;5.40;;;4.90;;
15258;SDS011;34462;51.368;12.364;2023-04-06T12:59:16;6.33;;;5.50;;
15258;SDS011;34462;51.368;12.364;2023-04-06T13:01:45;7.03;;;5.00;;
15258;SDS011;34462;51.368;12.364;2023-04-06T13:04:14;5.87;;;5.37;;
15258;SDS011;34462;51.368;12.364;2023-04-06T13:06:43;5.93;;;5.37;;
15258;SDS011;34462;51.368;12.364;2023-04-06T13:09:11;5.93;;;5.33;;
15258;SDS011;34462;51.368;12.364;2023-04-06T13:11:39;5.73;;;5.23;;
15258;SDS011;34462;51.368;12.364;2023-04-06T13:14:08;5.50;;;5.00;;
15258;SDS011;34462;51.368;12.364;2023-04-06T13:16:37;5.47;;;4.90;;
15258;SDS011;34462;51.368;12.364;2023-04-06T13:19:05;6.20;;;5.60;;
15258;SDS011;34462;51.368;12.364;2023-04-06T13:21:35;5.57;;;5.07;;
15258;SDS011;34462;51.368;12.364;2023-04-06T13:24:03;6.90;;;5.70;;
15258;SDS011;34462;51.368;12.364;2023-04-06T13:26:32;5.90;;;5.30;;
15258;SDS011;34462;51.368;12.364;2023-04-06T13:29:00;6.70;;;5.27;;
15258;SDS011;34462;51.368;12.364;2023-04-06T13:31:29;4.97;;;4.57;;
15258;SDS011;34462;51.368;12.364;2023-04-06T13:33:57;6.37;;;5.37;;
15258;SDS011;34462;51.368;12.364;2023-04-06T13:36:26;5.83;;;5.33;;
15258;SDS011;34462;51.368;12.364;2023-04-06T13:38:56;6.03;;;5.23;;
15258;SDS011;34462;51.368;12.364;2023-04-06T13:41:24;6.50;;;5.17;;
15258;SDS011;34462;51.368;12.364;2023-04-06T13:43:53;5.73;;;5.23;;
15258;SDS011;34462;51.368;12.364;2023-04-06T13:46:24;5.93;;;5.33;;
15258;SDS011;34462;51.368;12.364;2023-04-06T13:48:54;5.93;;;5.30;;
15258;SDS011;34462;51.368;12.364;2023-04-06T13:51:22;5.73;;;5.20;;
15258;SDS011;34462;51.368;12.364;2023-04-06T13:53:50;6.33;;;5.10;;
15258;SDS011;34462;51.368;12.364;2023-04-06T13:56:21;7.07;;;5.50;;
15258;SDS011;34462;51.368;12.364;2023-04-06T13:58:49;5.63;;;5.03;;
15258;SDS011;34462;51.368;12.364;2023-04-06T14:01:21;6.37;;;5.77;;
15258;SDS011;34462;51.368;12.364;2023-04-06T14:03:49;6.00;;;5.40;;
15258;SDS011;34462;51.368;12.364;2023-04-06T14:06:17;5.57;;;5.00;;
15258;SDS011;34462;51.368;12.364;2023-04-06T14:08:56;7.07;;;5.40;;
15258;SDS011;34462;51.368;12.364;2023-04-06T14:11:27;6.20;;;5.60;;
15258;SDS011;34462;51.368;12.364;2023-04-06T14:13:55;5.70;;;5.13;;
15258;SDS011;34462;51.368;12.364;2023-04-06T14:16:24;6.97;;;5.33;;
15258;SDS011;34462;51.368;12.364;2023-04-06T14:18:52;6.13;;;5.20;;
15258;SDS011;34462;51.368;12.364;2023-04-06T14:21:23;6.00;;;5.43;;
15258;SDS011;34462;51.368;12.364;2023-04-06T14:23:52;6.00;;;5.50;;
15258;SDS011;34462;51.368;12.364;2023-04-06T14:26:24;7.33;;;5.70;;
15258;SDS011;34462;51.368;12.364;2023-04-06T14:28:54;5.90;;;5.30;;
15258;SDS011;34462;51.368;12.364;2023-04-06T14:31:23;6.10;;;5.57;;
15258;SDS011;34462;51.368;12.364;2023-04-06T14:33:51;5.50;;;5.00;;
15258;SDS011;34462;51.368;12.364;2023-04-06T14:36:20;5.13;;;4.73;;
15258;SDS011;34462;51.368;12.364;2023-04-06T14:38:48;5.80;;;5.30;;
15258;SDS011;34462;51.368;12.364;2023-04-06T14:41:16;6.87;;;5.50;;
15258;SDS011;34462;51.368;12.364;2023-04-06T14:43:46;6.83;;;5.50;;
15258;SDS011;34462;51.368;12.364;2023-04-06T14:46:15;6.33;;;4.93;;